createdAt,value
2022-10-08T00:01:02.025Z,10.03
2022-10-08T00:03:31.407Z,10.00
2022-10-08T00:06:00.169Z,9.95
2022-10-08T00:08:28.031Z,9.85
2022-10-08T00:11:13.156Z,9.80
2022-10-08T00:13:41.954Z,9.76
2022-10-08T00:16:16.222Z,9.72
2022-10-08T00:18:44.838Z,9.67
2022-10-08T00:21:17.667Z,9.67
2022-10-08T00:23:46.752Z,9.66
2022-10-08T00:26:14.889Z,9.68
2022-10-08T00:28:46.709Z,9.73
2022-10-08T00:31:16.401Z,9.76
2022-10-08T00:33:43.089Z,9.72
2022-10-08T00:36:11.798Z,9.68
2022-10-08T00:38:38.999Z,9.60
2022-10-08T00:41:07.762Z,9.70
2022-10-08T00:43:46.480Z,9.74
2022-10-08T00:46:33.591Z,9.75
2022-10-08T00:49:11.379Z,9.76
2022-10-08T00:51:45.875Z,9.68
2022-10-08T00:54:13.360Z,9.72
2022-10-08T00:56:40.769Z,9.73
2022-10-08T00:59:09.427Z,9.75
2022-10-08T01:01:35.952Z,9.70
2022-10-08T01:04:07.386Z,9.68
2022-10-08T01:07:00.227Z,9.69
2022-10-08T01:09:35.322Z,9.74
2022-10-08T01:12:07.593Z,9.74
2022-10-08T01:14:56.457Z,9.75
2022-10-08T01:17:51.834Z,9.71
2022-10-08T01:20:37.145Z,9.72
2022-10-08T01:23:25.109Z,9.79
2022-10-08T01:26:11.775Z,9.73
2022-10-08T01:28:49.471Z,9.77
2022-10-08T01:31:20.782Z,9.79
2022-10-08T01:33:53.907Z,9.84
2022-10-08T01:36:22.953Z,9.91
2022-10-08T01:38:57.727Z,9.94
2022-10-08T01:41:26.391Z,9.94
2022-10-08T01:44:00.520Z,9.92
2022-10-08T01:46:29.192Z,9.88
2022-10-08T01:49:02.255Z,9.84
2022-10-08T01:51:53.676Z,9.88
2022-10-08T01:54:24.035Z,9.91
2022-10-08T01:56:53.580Z,9.89
2022-10-08T01:59:32.432Z,9.89
2022-10-08T02:01:58.781Z,9.87
2022-10-08T02:04:33.158Z,9.88
2022-10-08T02:07:14.490Z,9.85
2022-10-08T02:09:44.154Z,9.83
2022-10-08T02:12:11.679Z,9.81
2022-10-08T02:14:42.781Z,9.86
2022-10-08T02:17:17.917Z,9.90
2022-10-08T02:19:48.856Z,9.93
2022-10-08T02:22:19.182Z,9.94
2022-10-08T02:24:53.043Z,9.87
2022-10-08T02:27:27.765Z,9.89
2022-10-08T02:30:04.851Z,9.93
2022-10-08T02:32:36.720Z,10.01
2022-10-08T02:35:19.251Z,9.91
2022-10-08T02:37:48.697Z,9.91
2022-10-08T02:40:17.937Z,9.98
2022-10-08T02:42:49.311Z,9.94
2022-10-08T02:45:23.240Z,9.92
2022-10-08T02:47:54.078Z,9.94
2022-10-08T02:50:23.065Z,10.02
2022-10-08T02:52:51.502Z,9.93
2022-10-08T02:55:28.055Z,9.91
2022-10-08T02:58:02.657Z,9.88
2022-10-08T03:00:36.653Z,9.91
2022-10-08T03:03:11.215Z,9.95
2022-10-08T03:05:40.302Z,9.94
2022-10-08T03:08:10.133Z,9.93
2022-10-08T03:10:39.221Z,9.92
2022-10-08T03:13:07.420Z,9.90
2022-10-08T03:15:36.810Z,9.91
2022-10-08T03:18:08.312Z,9.96
2022-10-08T03:20:42.019Z,9.94
2022-10-08T03:23:08.759Z,9.96
2022-10-08T03:25:36.073Z,9.99
2022-10-08T03:28:02.489Z,9.91
2022-10-08T03:30:28.883Z,9.99
2022-10-08T03:32:55.242Z,10.00
2022-10-08T03:35:21.579Z,9.92
2022-10-08T03:37:47.960Z,9.87
2022-10-08T03:40:14.294Z,9.93
2022-10-08T03:42:40.720Z,9.91
2022-10-08T03:45:07.335Z,9.83
2022-10-08T03:47:33.679Z,9.83
2022-10-08T03:50:00.010Z,9.84
2022-10-08T03:52:26.452Z,9.75
2022-10-08T03:54:52.790Z,9.69
2022-10-08T03:57:19.129Z,9.73
2022-10-08T03:59:45.509Z,9.66
2022-10-08T04:02:12.014Z,9.67
2022-10-08T04:04:38.514Z,9.62
2022-10-08T04:07:04.885Z,9.62
2022-10-08T04:09:31.220Z,9.61
2022-10-08T04:11:57.579Z,9.56
2022-10-08T04:14:24.024Z,9.61
2022-10-08T04:16:51.171Z,9.55
2022-10-08T04:19:17.836Z,9.47
2022-10-08T04:21:44.167Z,9.46
2022-10-08T04:24:10.649Z,9.31
2022-10-08T04:26:37.012Z,9.33
2022-10-08T04:29:03.394Z,9.22
2022-10-08T04:31:29.873Z,9.18
2022-10-08T04:33:56.470Z,9.06
2022-10-08T04:36:24.763Z,9.08
2022-10-08T04:38:51.697Z,9.06
2022-10-08T04:41:23.866Z,9.02
2022-10-08T04:43:51.733Z,8.98
2022-10-08T04:46:21.463Z,9.00
2022-10-08T04:48:53.612Z,8.99
2022-10-08T04:51:21.187Z,9.01
2022-10-08T04:53:47.532Z,8.95
2022-10-08T04:56:23.490Z,8.91
2022-10-08T04:58:50.134Z,8.92
2022-10-08T05:01:20.890Z,8.92
2022-10-08T05:03:50.991Z,8.99
2022-10-08T05:06:19.636Z,8.98
2022-10-08T05:08:47.140Z,9.01
2022-10-08T05:11:15.489Z,9.05
2022-10-08T05:13:42.678Z,9.09
2022-10-08T05:16:13.514Z,9.07
2022-10-08T05:18:41.920Z,9.04
2022-10-08T05:21:11.641Z,9.08
2022-10-08T05:23:38.719Z,9.09
2022-10-08T05:26:16.555Z,9.13
2022-10-08T05:28:46.978Z,9.07
2022-10-08T05:31:14.674Z,9.07
2022-10-08T05:33:41.471Z,9.09
2022-10-08T05:36:15.298Z,9.13
2022-10-08T05:38:43.558Z,9.09
2022-10-08T05:41:17.936Z,9.10
2022-10-08T05:43:45.329Z,9.04
2022-10-08T05:46:12.113Z,9.04
2022-10-08T05:48:38.922Z,9.10
2022-10-08T05:51:07.754Z,9.11
2022-10-08T05:53:35.730Z,9.20
2022-10-08T05:56:04.514Z,9.21
2022-10-08T05:58:31.806Z,9.24
2022-10-08T06:01:02.712Z,9.26
2022-10-08T06:03:29.573Z,9.27
2022-10-08T06:06:01.357Z,9.35
2022-10-08T06:08:27.663Z,9.37
2022-10-08T06:10:55.117Z,9.38
2022-10-08T06:13:22.646Z,9.39
2022-10-08T06:15:59.083Z,9.36
2022-10-08T06:18:27.124Z,9.41
2022-10-08T06:20:54.251Z,9.37
2022-10-08T06:23:22.680Z,9.37
2022-10-08T06:25:49.007Z,9.48
2022-10-08T06:28:16.030Z,9.49
2022-10-08T06:30:42.918Z,9.58
2022-10-08T06:33:10.159Z,9.54
2022-10-08T06:35:37.628Z,9.57
2022-10-08T06:38:05.081Z,9.51
2022-10-08T06:40:33.153Z,9.45
2022-10-08T06:42:59.665Z,9.48
2022-10-08T06:45:26.192Z,9.51
2022-10-08T06:47:52.602Z,9.51
2022-10-08T06:50:19.042Z,9.58
2022-10-08T06:52:45.968Z,9.64
2022-10-08T06:55:12.563Z,9.75
2022-10-08T06:57:38.995Z,9.75
2022-10-08T07:00:05.948Z,9.68
2022-10-08T07:02:32.481Z,9.67
2022-10-08T07:04:58.982Z,9.78
2022-10-08T07:07:25.412Z,9.77
2022-10-08T07:09:51.962Z,9.70
2022-10-08T07:12:18.327Z,9.77
2022-10-08T07:14:45.453Z,9.74
2022-10-08T07:17:11.840Z,9.78
2022-10-08T07:19:38.222Z,9.93
2022-10-08T07:22:04.623Z,10.04
2022-10-08T07:24:30.971Z,10.17
2022-10-08T07:26:57.307Z,10.06
2022-10-08T07:29:24.924Z,10.15
2022-10-08T07:31:51.427Z,10.22
2022-10-08T07:34:17.924Z,10.13
2022-10-08T07:36:44.282Z,10.22
2022-10-08T07:39:14.449Z,10.27
2022-10-08T07:41:41.701Z,10.24
2022-10-08T07:44:08.339Z,10.29
2022-10-08T07:46:41.768Z,10.29
2022-10-08T07:49:08.254Z,10.32
2022-10-08T07:51:35.051Z,10.38
2022-10-08T07:54:03.800Z,10.50
2022-10-08T07:56:32.857Z,10.53
2022-10-08T07:59:00.705Z,10.55
2022-10-08T08:01:30.628Z,10.61
2022-10-08T08:04:00.850Z,10.68
2022-10-08T08:06:28.198Z,10.70
2022-10-08T08:08:55.146Z,10.71
2022-10-08T08:11:23.912Z,10.72
2022-10-08T08:13:50.898Z,10.73
2022-10-08T08:16:20.597Z,10.61
2022-10-08T08:18:50.062Z,10.76
2022-10-08T08:21:21.688Z,10.74
2022-10-08T08:23:50.125Z,10.79
2022-10-08T08:26:19.472Z,10.74
2022-10-08T08:28:50.442Z,10.91
2022-10-08T08:31:18.658Z,10.98
2022-10-08T08:33:50.936Z,11.07
2022-10-08T08:36:18.539Z,11.14
2022-10-08T08:38:45.451Z,10.90
2022-10-08T08:41:40.534Z,10.99
2022-10-08T08:44:23.806Z,11.14
2022-10-08T08:47:28.595Z,11.22
2022-10-08T08:50:28.008Z,11.24
2022-10-08T08:52:55.698Z,11.32
2022-10-08T08:55:33.569Z,11.45
2022-10-08T08:58:33.741Z,11.37
2022-10-08T09:01:09.192Z,11.50
2022-10-08T09:03:44.557Z,11.62
2022-10-08T09:06:15.495Z,11.76
2022-10-08T09:09:01.788Z,11.93
2022-10-08T09:11:29.849Z,12.04
2022-10-08T09:14:05.817Z,12.03
2022-10-08T09:16:35.499Z,12.00
2022-10-08T09:19:01.960Z,11.94
2022-10-08T09:21:31.600Z,12.04
2022-10-08T09:23:58.124Z,12.07
2022-10-08T09:26:26.720Z,12.18
2022-10-08T09:28:55.394Z,12.43
2022-10-08T09:31:21.783Z,12.74
2022-10-08T09:34:10.657Z,12.87
2022-10-08T09:36:40.987Z,12.80
2022-10-08T09:39:37.054Z,13.09
2022-10-08T09:42:06.458Z,13.32
2022-10-08T09:44:46.604Z,13.42
2022-10-08T09:47:24.698Z,13.21
2022-10-08T09:50:07.240Z,13.00
2022-10-08T09:52:36.258Z,12.76
2022-10-08T09:55:48.377Z,12.84
2022-10-08T09:58:18.708Z,12.95
2022-10-08T10:00:45.454Z,13.04
2022-10-08T10:03:19.466Z,13.12
2022-10-08T10:05:51.436Z,13.23
2022-10-08T10:08:52.255Z,13.13
2022-10-08T10:11:30.057Z,13.13
2022-10-08T10:14:01.335Z,13.29
2022-10-08T10:16:36.429Z,13.22
2022-10-08T10:19:15.708Z,13.53
2022-10-08T10:21:48.446Z,13.64
2022-10-08T10:24:32.184Z,14.02
2022-10-08T10:27:08.149Z,14.16
2022-10-08T10:29:55.571Z,14.52
2022-10-08T10:32:31.692Z,14.59
2022-10-08T10:35:15.523Z,14.63
2022-10-08T10:37:51.407Z,14.90
2022-10-08T10:40:24.809Z,14.58
2022-10-08T10:43:00.656Z,14.65
2022-10-08T10:45:32.227Z,14.98
2022-10-08T10:47:59.885Z,15.10
2022-10-08T10:51:00.811Z,14.70
2022-10-08T10:53:53.652Z,14.69
2022-10-08T10:56:21.421Z,14.31
2022-10-08T10:59:07.640Z,14.60
2022-10-08T11:01:53.700Z,14.53
2022-10-08T11:04:27.610Z,14.56
2022-10-08T11:07:28.759Z,14.69
2022-10-08T11:10:02.714Z,14.62
2022-10-08T11:12:56.905Z,14.85
2022-10-08T11:15:41.003Z,14.84
2022-10-08T11:18:22.360Z,14.91
2022-10-08T11:21:17.491Z,15.11
2022-10-08T11:23:57.730Z,15.60
2022-10-08T11:26:39.255Z,15.67
2022-10-08T11:29:30.526Z,15.52
2022-10-08T11:31:57.787Z,15.23
2022-10-08T11:34:34.536Z,15.15
2022-10-08T11:37:25.319Z,15.34
2022-10-08T11:40:01.680Z,15.72
2022-10-08T11:42:42.970Z,16.33
2022-10-08T11:45:23.673Z,17.23
2022-10-08T11:47:58.883Z,17.81
2022-10-08T11:50:25.482Z,19.13
2022-10-08T11:52:53.596Z,19.33
2022-10-08T11:55:27.053Z,19.12
2022-10-08T11:58:09.957Z,19.65
2022-10-08T12:00:38.832Z,21.30
2022-10-08T12:03:28.288Z,20.24
2022-10-08T12:05:58.385Z,19.19
2022-10-08T12:09:02.629Z,18.75
2022-10-08T12:11:31.726Z,18.03
2022-10-08T12:14:17.049Z,17.29
2022-10-08T12:16:49.372Z,17.48
2022-10-08T12:19:33.816Z,17.41
2022-10-08T12:22:01.477Z,17.52
2022-10-08T12:24:37.003Z,17.37
2022-10-08T12:27:24.676Z,17.43
2022-10-08T12:29:56.967Z,17.50
2022-10-08T12:32:25.851Z,17.55
2022-10-08T12:34:52.499Z,17.79
2022-10-08T12:37:36.277Z,17.87
2022-10-08T12:40:25.677Z,18.38
2022-10-08T12:43:05.222Z,18.08
2022-10-08T12:45:40.320Z,17.87
2022-10-08T12:48:37.646Z,17.81
2022-10-08T12:51:21.095Z,17.69
2022-10-08T12:53:48.430Z,17.46
2022-10-08T12:56:25.998Z,17.29
2022-10-08T12:58:55.535Z,17.09
2022-10-08T13:01:22.650Z,17.20
2022-10-08T13:04:08.271Z,17.39
2022-10-08T13:06:34.809Z,17.58
2022-10-08T13:09:01.272Z,18.04
2022-10-08T13:11:28.129Z,18.70
2022-10-08T13:13:54.508Z,18.66
2022-10-08T13:16:23.764Z,18.24
2022-10-08T13:18:57.415Z,18.06
2022-10-08T13:21:31.491Z,18.61
2022-10-08T13:23:59.099Z,19.95
2022-10-08T13:26:45.963Z,21.47
2022-10-08T13:29:21.347Z,22.31
2022-10-08T13:31:54.531Z,21.56
2022-10-08T13:34:22.432Z,19.92
2022-10-08T13:36:52.500Z,18.93
2022-10-08T13:39:28.656Z,18.43
2022-10-08T13:41:57.725Z,18.00
2022-10-08T13:44:25.332Z,17.94
2022-10-08T13:46:53.025Z,17.81
2022-10-08T13:49:25.644Z,17.57
2022-10-08T13:51:52.517Z,17.82
2022-10-08T13:54:28.144Z,17.92
2022-10-08T13:56:54.642Z,18.25
2022-10-08T13:59:21.453Z,18.05
2022-10-08T14:01:48.803Z,17.83
2022-10-08T14:04:16.728Z,17.74
2022-10-08T14:06:47.528Z,17.88
2022-10-08T14:09:18.847Z,17.81
2022-10-08T14:11:46.313Z,18.18
2022-10-08T14:14:14.610Z,18.01
2022-10-08T14:16:44.112Z,17.81
2022-10-08T14:19:12.341Z,17.77
2022-10-08T14:21:40.235Z,18.13
2022-10-08T14:24:07.455Z,17.83
2022-10-08T14:26:34.305Z,17.50
2022-10-08T14:29:00.749Z,17.64
2022-10-08T14:31:28.272Z,17.55
2022-10-08T14:33:55.697Z,17.42
2022-10-08T14:36:32.119Z,17.37
2022-10-08T14:38:58.399Z,17.12
2022-10-08T14:41:24.770Z,16.99
2022-10-08T14:43:51.130Z,17.05
2022-10-08T14:46:18.519Z,17.02
2022-10-08T14:48:45.036Z,16.88
2022-10-08T14:51:12.381Z,16.87
2022-10-08T14:53:39.090Z,16.71
2022-10-08T14:56:12.367Z,16.85
2022-10-08T14:58:39.317Z,16.90
2022-10-08T15:01:06.097Z,17.01
2022-10-08T15:03:32.675Z,17.19
2022-10-08T15:06:00.406Z,17.04
2022-10-08T15:08:27.284Z,16.64
2022-10-08T15:10:53.760Z,16.45
2022-10-08T15:13:20.203Z,16.33
2022-10-08T15:15:46.597Z,16.25
2022-10-08T15:18:13.043Z,16.12
2022-10-08T15:20:39.548Z,15.95
2022-10-08T15:23:07.319Z,15.74
2022-10-08T15:25:33.892Z,15.55
2022-10-08T15:28:00.411Z,15.43
2022-10-08T15:30:26.971Z,15.37
2022-10-08T15:32:53.763Z,15.30
2022-10-08T15:35:20.260Z,15.23
2022-10-08T15:37:47.113Z,15.16
2022-10-08T15:40:13.600Z,15.05
2022-10-08T15:42:39.937Z,15.05
2022-10-08T15:45:06.673Z,15.03
2022-10-08T15:47:33.080Z,14.94
2022-10-08T15:50:00.069Z,14.90
2022-10-08T15:52:26.466Z,14.85
2022-10-08T15:54:53.082Z,14.75
2022-10-08T15:57:19.500Z,14.63
2022-10-08T15:59:46.010Z,14.55
2022-10-08T16:02:17.150Z,14.49
2022-10-08T16:04:46.189Z,14.42
2022-10-08T16:07:12.612Z,14.35
2022-10-08T16:09:39.418Z,14.29
2022-10-08T16:12:05.978Z,14.21
2022-10-08T16:14:32.444Z,14.15
2022-10-08T16:16:58.840Z,14.09
2022-10-08T16:19:26.929Z,14.01
2022-10-08T16:21:55.971Z,13.96
2022-10-08T16:24:23.220Z,13.89
2022-10-08T16:26:49.656Z,13.80
2022-10-08T16:29:17.964Z,13.73
2022-10-08T16:31:45.762Z,13.62
2022-10-08T16:34:21.319Z,13.53
2022-10-08T16:36:48.576Z,13.39
2022-10-08T16:39:20.783Z,13.26
2022-10-08T16:41:48.204Z,13.09
2022-10-08T16:44:17.491Z,13.01
2022-10-08T16:46:48.294Z,12.88
2022-10-08T16:49:23.739Z,12.75
2022-10-08T16:51:52.108Z,12.60
2022-10-08T16:54:18.689Z,12.47
2022-10-08T16:56:46.138Z,12.38
2022-10-08T16:59:15.716Z,12.28
2022-10-08T17:01:44.771Z,12.18
2022-10-08T17:04:11.596Z,12.09
2022-10-08T17:06:38.054Z,12.02
2022-10-08T17:09:04.640Z,11.97
2022-10-08T17:11:32.928Z,11.94
2022-10-08T17:14:00.342Z,11.87
2022-10-08T17:16:28.544Z,11.83
2022-10-08T17:18:57.342Z,11.79
2022-10-08T17:21:25.396Z,11.74
2022-10-08T17:23:51.998Z,11.70
2022-10-08T17:26:21.570Z,11.59
2022-10-08T17:28:49.618Z,11.51
2022-10-08T17:31:19.299Z,11.44
2022-10-08T17:33:46.310Z,11.38
2022-10-08T17:36:20.164Z,11.36
2022-10-08T17:38:48.495Z,11.33
2022-10-08T17:41:17.703Z,11.22
2022-10-08T17:43:45.776Z,11.10
2022-10-08T17:46:24.127Z,11.00
2022-10-08T17:48:51.592Z,10.93
2022-10-08T17:51:20.451Z,10.86
2022-10-08T17:54:01.383Z,10.79
2022-10-08T17:56:28.799Z,10.72
2022-10-08T17:58:55.974Z,10.68
2022-10-08T18:01:25.279Z,10.63
2022-10-08T18:03:59.638Z,10.63
2022-10-08T18:06:27.065Z,10.62
2022-10-08T18:08:57.936Z,10.58
2022-10-08T18:11:25.738Z,10.60
2022-10-08T18:13:52.462Z,10.65
2022-10-08T18:16:20.044Z,10.62
2022-10-08T18:18:47.787Z,10.57
2022-10-08T18:21:16.059Z,10.52
2022-10-08T18:23:43.495Z,10.44
2022-10-08T18:26:21.024Z,10.39
2022-10-08T18:28:50.734Z,10.38
2022-10-08T18:31:18.771Z,10.37
2022-10-08T18:33:47.253Z,10.38
2022-10-08T18:36:19.404Z,10.38
2022-10-08T18:38:48.003Z,10.36
2022-10-08T18:41:15.977Z,10.36
2022-10-08T18:43:43.995Z,10.32
2022-10-08T18:46:11.958Z,10.27
2022-10-08T18:48:38.627Z,10.24
2022-10-08T18:51:08.504Z,10.23
2022-10-08T18:53:37.077Z,10.21
2022-10-08T18:56:04.935Z,10.16
2022-10-08T18:58:31.246Z,10.11
2022-10-08T19:00:58.451Z,10.09
2022-10-08T19:03:25.487Z,10.04
2022-10-08T19:05:52.860Z,9.98
2022-10-08T19:08:19.327Z,10.04
2022-10-08T19:10:45.689Z,10.04
2022-10-08T19:13:12.485Z,10.03
2022-10-08T19:15:39.368Z,9.98
2022-10-08T19:18:06.811Z,9.91
2022-10-08T19:20:34.960Z,9.87
2022-10-08T19:23:01.802Z,9.89
2022-10-08T19:25:29.927Z,9.83
2022-10-08T19:27:56.730Z,9.72
2022-10-08T19:30:26.632Z,9.66
2022-10-08T19:32:55.087Z,9.55
2022-10-08T19:35:21.481Z,9.50
2022-10-08T19:37:47.932Z,9.47
2022-10-08T19:40:14.316Z,9.44
2022-10-08T19:42:40.712Z,9.42
2022-10-08T19:45:08.538Z,9.36
2022-10-08T19:47:35.826Z,9.29
2022-10-08T19:50:02.684Z,9.22
2022-10-08T19:52:29.175Z,9.20
2022-10-08T19:54:55.659Z,9.16
2022-10-08T19:57:23.071Z,9.10
2022-10-08T19:59:49.486Z,9.06
2022-10-08T20:02:15.845Z,9.06
2022-10-08T20:04:42.318Z,9.03
2022-10-08T20:07:08.698Z,8.98
2022-10-08T20:09:36.278Z,8.92
2022-10-08T20:12:03.291Z,8.89
2022-10-08T20:14:29.771Z,8.84
2022-10-08T20:16:56.112Z,8.78
2022-10-08T20:19:22.556Z,8.73
2022-10-08T20:21:50.834Z,8.70
2022-10-08T20:24:18.561Z,8.67
2022-10-08T20:26:45.483Z,8.69
2022-10-08T20:29:23.651Z,8.71
2022-10-08T20:31:55.150Z,8.78
2022-10-08T20:34:26.771Z,8.82
2022-10-08T20:36:53.558Z,8.85
2022-10-08T20:39:22.831Z,8.84
2022-10-08T20:41:49.976Z,8.82
2022-10-08T20:44:18.035Z,8.80
2022-10-08T20:46:45.469Z,8.73
2022-10-08T20:49:13.604Z,8.74
2022-10-08T20:51:42.289Z,8.72
2022-10-08T20:54:11.695Z,8.71
2022-10-08T20:56:40.291Z,8.71
2022-10-08T20:59:17.754Z,8.68
2022-10-08T21:01:44.941Z,8.65
2022-10-08T21:04:11.529Z,8.59
2022-10-08T21:06:40.680Z,8.60
2022-10-08T21:09:07.699Z,8.56
2022-10-08T21:11:34.443Z,8.53
2022-10-08T21:14:01.594Z,8.56
2022-10-08T21:16:31.607Z,8.46
2022-10-08T21:19:00.482Z,8.46
2022-10-08T21:21:29.027Z,8.39
2022-10-08T21:23:56.228Z,8.33
2022-10-08T21:26:25.468Z,8.27
2022-10-08T21:28:57.843Z,8.18
2022-10-08T21:31:26.056Z,8.19
2022-10-08T21:33:54.203Z,8.16
2022-10-08T21:36:23.200Z,8.09
2022-10-08T21:38:50.346Z,8.03
2022-10-08T21:41:18.639Z,7.97
2022-10-08T21:43:47.563Z,7.91
2022-10-08T21:46:17.089Z,7.87
2022-10-08T21:48:44.100Z,7.86
2022-10-08T21:51:20.143Z,7.84
2022-10-08T21:53:52.423Z,7.83
2022-10-08T21:56:22.674Z,7.84
2022-10-08T21:58:59.732Z,7.76
2022-10-08T22:01:29.134Z,7.76
2022-10-08T22:03:57.520Z,7.76
2022-10-08T22:06:27.338Z,7.74
2022-10-08T22:08:54.226Z,7.71
2022-10-08T22:11:21.034Z,7.68
2022-10-08T22:13:48.020Z,7.69
2022-10-08T22:16:16.731Z,7.70
2022-10-08T22:18:43.316Z,7.68
2022-10-08T22:21:14.775Z,7.65
2022-10-08T22:23:41.458Z,7.63
2022-10-08T22:26:32.794Z,7.58
2022-10-08T22:28:59.457Z,7.54
2022-10-08T22:31:27.051Z,7.50
2022-10-08T22:33:53.891Z,7.45
2022-10-08T22:36:23.357Z,7.48
2022-10-08T22:38:50.503Z,7.46
2022-10-08T22:41:26.194Z,7.41
2022-10-08T22:43:52.936Z,7.39
2022-10-08T22:46:31.253Z,7.38
2022-10-08T22:49:03.936Z,7.34
2022-10-08T22:51:31.186Z,7.33
2022-10-08T22:53:58.042Z,7.25
2022-10-08T22:56:27.039Z,7.24
2022-10-08T22:58:53.376Z,7.22
2022-10-08T23:01:22.216Z,7.16
2022-10-08T23:03:49.683Z,7.08
2022-10-08T23:06:28.511Z,7.07
2022-10-08T23:08:57.349Z,7.03
2022-10-08T23:11:24.626Z,7.04
2022-10-08T23:13:56.133Z,7.01
2022-10-08T23:16:23.450Z,6.97
2022-10-08T23:19:04.391Z,6.93
2022-10-08T23:21:31.112Z,6.88
2022-10-08T23:23:59.015Z,6.82
2022-10-08T23:26:26.177Z,6.78
2022-10-08T23:28:57.820Z,6.79
2022-10-08T23:31:27.302Z,6.74
2022-10-08T23:33:54.734Z,6.68
2022-10-08T23:36:24.731Z,6.65
2022-10-08T23:38:51.455Z,6.57
2022-10-08T23:41:18.005Z,6.52
2022-10-08T23:43:47.281Z,6.45
2022-10-08T23:46:16.182Z,6.36
2022-10-08T23:48:43.226Z,6.28
2022-10-08T23:51:11.509Z,6.23
2022-10-08T23:53:38.259Z,6.33
2022-10-08T23:56:05.728Z,6.29
2022-10-08T23:58:32.147Z,6.26
